createdAt,value
2019-02-05T00:03:41.340Z,60091.78
2019-02-05T00:06:07.560Z,60104.47
2019-02-05T00:08:35.695Z,60132.11
2019-02-05T00:11:23.068Z,60130.25
2019-02-05T00:13:49.188Z,60144.05
2019-02-05T00:16:15.429Z,60158.37
2019-02-05T00:18:41.658Z,60165.71
2019-02-05T00:21:07.799Z,60186.83
2019-02-05T00:23:34.252Z,60216.12
2019-02-05T00:26:06.197Z,60237.16
2019-02-05T00:31:25.242Z,60241.42
2019-02-05T00:36:21.574Z,60267.96
2019-02-05T00:38:47.791Z,60282.14
2019-02-05T00:41:14.028Z,60295.67
2019-02-05T00:43:40.181Z,60307.12
2019-02-05T00:46:06.401Z,60317.21
2019-02-05T00:48:32.616Z,60324.40
2019-02-05T00:50:58.858Z,60348.68
2019-02-05T00:53:25.283Z,60355.22
2019-02-05T00:55:51.521Z,60362.46
2019-02-05T00:58:17.738Z,60367.51
2019-02-05T01:00:43.969Z,60366.02
2019-02-05T01:03:10.189Z,60372.95
2019-02-05T01:05:36.863Z,60394.99
2019-02-05T01:08:03.182Z,60402.41
2019-02-05T01:10:49.375Z,60388.81
2019-02-05T01:13:15.613Z,60419.91
2019-02-05T01:15:41.879Z,60423.96
2019-02-05T01:18:07.995Z,60430.50
2019-02-05T01:23:08.432Z,60441.65
2019-02-05T01:25:54.420Z,60418.11
2019-02-05T01:28:20.652Z,60425.07
2019-02-05T01:30:47.815Z,60421.05
2019-02-05T01:33:14.047Z,60410.73
2019-02-05T01:35:40.300Z,60446.94
2019-02-05T01:40:57.203Z,60458.09
2019-02-05T01:43:23.450Z,60440.07
2019-02-05T01:45:49.591Z,60431.06
2019-02-05T01:48:15.808Z,60443.76
2019-02-05T01:50:43.930Z,60421.32
2019-02-05T01:53:10.075Z,60438.98
2019-02-05T01:55:36.309Z,60446.94
2019-02-05T01:58:02.560Z,60438.29
2019-02-05T02:01:10.098Z,60450.21
2019-02-05T02:03:36.370Z,60466.57
2019-02-05T02:12:10.258Z,60484.62
2019-02-05T02:14:36.471Z,60477.80
2019-02-05T02:17:44.014Z,60484.71
2019-02-05T02:20:42.705Z,60488.62
2019-02-05T02:23:08.945Z,60485.24
2019-02-05T02:25:35.178Z,60492.05
2019-02-05T02:28:01.416Z,60498.42
2019-02-05T02:30:47.312Z,60495.32
2019-02-05T02:33:13.846Z,60506.92
2019-02-05T02:35:40.078Z,60508.50
2019-02-05T02:38:06.314Z,60493.68
2019-02-05T02:40:32.440Z,60512.22
2019-02-05T02:42:58.581Z,60514.89
2019-02-05T02:45:24.793Z,60525.49
2019-02-05T02:47:51.019Z,60531.33
2019-02-05T02:50:58.566Z,60538.05
2019-02-05T02:53:24.695Z,60535.32
2019-02-05T02:55:50.818Z,60552.07
2019-02-05T02:58:17.064Z,60553.11
2019-02-05T03:00:43.278Z,60545.97
2019-02-05T03:03:09.714Z,60553.11
2019-02-05T03:05:35.945Z,60558.41
2019-02-05T03:08:02.233Z,60562.14
2019-02-05T03:13:41.719Z,60564.25
2019-02-05T03:16:07.953Z,60555.85
2019-02-05T03:18:34.172Z,60570.64
2019-02-05T03:21:00.412Z,60565.79
2019-02-05T03:23:26.552Z,60571.26
2019-02-05T03:25:52.671Z,60584.46
2019-02-05T03:28:18.790Z,60574.25
2019-02-05T03:30:45.024Z,60565.69
2019-02-05T03:33:11.140Z,60578.00
2019-02-05T03:35:39.275Z,60577.82
2019-02-05T03:38:05.510Z,60571.18
2019-02-05T03:41:13.056Z,60591.70
2019-02-05T03:43:52.041Z,60591.10
2019-02-05T03:49:11.875Z,60598.28
2019-02-05T03:52:19.385Z,60591.10
2019-02-05T03:55:26.956Z,60591.99
2019-02-05T04:07:41.045Z,60621.66
2019-02-05T04:10:46.777Z,60616.33
2019-02-05T04:13:52.513Z,60616.33
2019-02-05T04:16:58.295Z,60609.89
2019-02-05T04:32:13.611Z,60634.39
2019-02-05T04:35:19.340Z,60628.63
2019-02-05T04:38:25.072Z,60636.54
2019-02-05T04:44:24.303Z,60638.12
2019-02-05T04:50:30.748Z,60629.77
2019-02-05T04:53:38.290Z,60605.00
2019-02-05T04:56:44.015Z,60609.96
2019-02-05T04:59:51.581Z,60599.86
2019-02-05T05:02:59.108Z,60593.30
2019-02-05T05:06:05.150Z,60594.38
2019-02-05T05:09:03.793Z,60586.73
2019-02-05T05:11:30.029Z,60586.58
2019-02-05T05:13:56.272Z,60564.44
2019-02-05T05:17:03.836Z,60566.74
2019-02-05T05:25:24.837Z,60580.75
2019-02-05T05:28:32.371Z,60596.25
2019-02-05T05:30:58.509Z,60602.33
2019-02-05T05:33:24.630Z,60606.05
2019-02-05T05:35:50.861Z,60604.05
2019-02-05T05:38:17.080Z,60615.82
2019-02-05T05:40:43.206Z,60599.70
2019-02-05T05:43:09.441Z,60617.94
2019-02-05T05:45:35.659Z,60609.18
2019-02-05T05:48:01.890Z,60617.94
2019-02-05T05:50:29.920Z,60615.08
2019-02-05T05:52:56.181Z,60615.82
2019-02-05T05:55:22.413Z,60617.40
2019-02-05T05:57:48.648Z,60616.87
2019-02-05T06:03:28.576Z,60613.08
2019-02-05T06:05:54.861Z,60615.68
2019-02-05T06:08:21.142Z,60623.33
2019-02-05T06:10:47.424Z,60631.02
2019-02-05T06:13:13.656Z,60632.81
2019-02-05T06:15:39.880Z,60630.96
2019-02-05T06:18:06.260Z,60639.19
2019-02-05T06:20:34.277Z,60643.78
2019-02-05T06:23:00.526Z,60649.29
2019-02-05T06:25:26.757Z,60653.16
2019-02-05T06:27:52.887Z,60656.74
2019-02-05T06:30:19.009Z,60650.44
2019-02-05T06:32:45.237Z,60673.22
2019-02-05T06:38:12.548Z,60655.14
2019-02-05T06:40:38.779Z,60678.32
2019-02-05T06:43:04.918Z,60683.14
2019-02-05T06:46:12.447Z,60676.49
2019-02-05T06:48:38.687Z,60685.47
2019-02-05T06:51:04.907Z,60670.50
2019-02-05T06:53:31.033Z,60683.33
2019-02-05T06:59:11.015Z,60685.20
2019-02-05T07:01:37.137Z,60692.92
2019-02-05T07:04:44.688Z,60668.79
2019-02-05T07:07:10.824Z,60678.82
2019-02-05T07:09:37.055Z,60684.40
2019-02-05T07:14:50.776Z,60661.61
2019-02-05T07:17:16.945Z,60658.86
2019-02-05T07:19:43.086Z,60651.23
2019-02-05T07:22:09.201Z,60647.68
2019-02-05T07:24:35.435Z,60643.45
2019-02-05T07:27:01.542Z,60640.77
2019-02-05T07:29:27.812Z,60637.58
2019-02-05T07:31:53.924Z,60625.45
2019-02-05T07:34:21.322Z,60623.51
2019-02-05T07:36:48.063Z,60625.98
2019-02-05T07:39:14.186Z,60629.89
2019-02-05T07:41:40.304Z,60635.55
2019-02-05T07:44:06.445Z,60649.29
2019-02-05T07:46:32.651Z,60657.49
2019-02-05T07:48:58.775Z,60655.13
2019-02-05T07:51:24.888Z,60658.86
2019-02-05T07:53:51.081Z,60671.10
2019-02-05T07:56:17.245Z,60679.60
2019-02-05T07:58:43.371Z,60684.93
2019-02-05T08:01:11.401Z,60693.97
2019-02-05T08:03:37.641Z,60700.64
2019-02-05T08:08:57.637Z,60712.87
2019-02-05T08:11:23.764Z,60712.07
2019-02-05T08:13:49.879Z,60711.00
2019-02-05T08:16:17.926Z,60706.76
2019-02-05T08:18:45.952Z,60696.91
2019-02-05T08:21:12.084Z,60702.49
2019-02-05T08:23:38.224Z,60698.23
2019-02-05T08:26:04.356Z,60693.04
2019-02-05T08:28:40.675Z,60681.04
2019-02-05T08:30:58.597Z,60698.77
2019-02-05T08:33:24.815Z,60699.30
2019-02-05T08:35:50.965Z,60696.11
2019-02-05T08:38:17.176Z,60692.92
2019-02-05T08:40:45.295Z,60684.40
2019-02-05T08:43:11.429Z,60677.48
2019-02-05T08:46:18.961Z,60674.83
2019-02-05T08:48:45.084Z,60676.95
2019-02-05T08:51:11.420Z,60687.59
2019-02-05T08:53:37.659Z,60698.59
2019-02-05T08:56:03.769Z,60707.80
2019-02-05T08:58:31.390Z,60709.95
2019-02-05T09:00:58.009Z,60706.76
2019-02-05T09:03:24.138Z,60691.93
2019-02-05T09:05:50.255Z,60699.84
2019-02-05T09:08:16.489Z,60674.30
2019-02-05T09:10:42.704Z,60684.40
2019-02-05T09:13:10.744Z,60676.41
2019-02-05T09:15:36.893Z,60668.78
2019-02-05T09:18:44.525Z,60656.82
2019-02-05T09:21:10.647Z,60644.14
2019-02-05T09:23:36.970Z,60662.05
2019-02-05T09:26:03.087Z,60654.35
2019-02-05T09:28:29.222Z,60657.92
2019-02-05T09:30:55.335Z,60658.79
2019-02-05T09:34:02.878Z,60644.51
2019-02-05T09:36:29.095Z,60655.48
2019-02-05T09:38:55.227Z,60659.39
2019-02-05T09:41:21.344Z,60657.27
2019-02-05T09:43:47.491Z,60655.67
2019-02-05T09:46:13.638Z,60651.51
2019-02-05T09:48:39.835Z,60665.20
2019-02-05T09:51:05.966Z,60664.19
2019-02-05T09:53:32.091Z,60678.55
2019-02-05T09:56:00.220Z,60661.54
2019-02-05T09:58:26.349Z,60678.02
2019-02-05T10:00:52.581Z,60676.16
2019-02-05T10:03:18.720Z,60687.05
2019-02-05T10:06:04.705Z,60682.79
2019-02-05T10:08:30.832Z,60685.47
2019-02-05T10:10:58.849Z,60693.97
2019-02-05T10:13:24.985Z,60689.11
2019-02-05T10:15:51.116Z,60696.11
2019-02-05T10:18:17.335Z,60699.84
2019-02-05T10:20:43.669Z,60706.76
2019-02-05T10:23:09.891Z,60717.91
2019-02-05T10:25:36.015Z,60722.71
2019-02-05T10:28:02.133Z,60714.29
2019-02-05T10:31:09.668Z,60724.84
2019-02-05T10:33:35.784Z,60722.71
2019-02-05T10:38:56.312Z,60720.50
2019-02-05T10:41:22.439Z,60738.66
2019-02-05T10:43:48.562Z,60724.82
2019-02-05T10:46:14.694Z,60743.20
2019-02-05T10:48:40.802Z,60752.50
2019-02-05T10:51:06.939Z,60750.99
2019-02-05T10:53:33.047Z,60752.86
2019-02-05T10:55:59.174Z,60775.95
2019-02-05T10:58:25.484Z,60777.61
2019-02-05T11:00:51.637Z,60784.02
2019-02-05T11:03:17.753Z,60796.72
2019-02-05T11:05:43.885Z,60797.25
2019-02-05T11:08:10.000Z,60799.38
2019-02-05T11:10:36.123Z,60790.74
2019-02-05T11:13:02.235Z,60806.66
2019-02-05T11:16:09.789Z,60794.28
2019-02-05T11:18:35.932Z,60806.66
2019-02-05T11:21:04.227Z,60812.16
2019-02-05T11:23:30.079Z,60817.50
2019-02-05T11:25:56.214Z,60820.84
2019-02-05T11:28:22.323Z,60829.23
2019-02-05T11:30:50.390Z,60815.17
2019-02-05T11:33:16.501Z,60843.09
2019-02-05T11:35:42.727Z,60825.37
2019-02-05T11:38:50.243Z,60822.21
2019-02-05T11:41:16.476Z,60829.23
2019-02-05T11:43:42.592Z,60806.34
2019-02-05T11:46:08.726Z,60812.16
2019-02-05T11:48:34.848Z,60815.71
2019-02-05T11:51:01.071Z,60799.38
2019-02-05T11:53:27.187Z,60787.28
2019-02-05T11:55:53.306Z,60781.80
2019-02-05T11:58:19.535Z,60770.35
2019-02-05T12:01:05.604Z,60768.14
2019-02-05T12:03:31.863Z,60779.14
2019-02-05T12:05:57.974Z,60767.23
2019-02-05T12:08:24.121Z,60753.85
2019-02-05T12:10:50.233Z,60764.04
2019-02-05T12:13:16.364Z,60764.04
2019-02-05T12:15:42.583Z,60751.64
2019-02-05T12:18:08.712Z,60753.65
2019-02-05T12:20:42.399Z,60764.22
2019-02-05T12:23:08.633Z,60761.03
2019-02-05T12:25:34.749Z,60757.83
2019-02-05T12:28:00.872Z,60750.38
2019-02-05T12:31:08.399Z,60747.18
2019-02-05T12:33:34.528Z,60742.92
2019-02-05T12:36:00.649Z,60729.69
2019-02-05T12:38:26.775Z,60730.48
2019-02-05T12:40:52.896Z,60725.37
2019-02-05T12:43:19.132Z,60711.82
2019-02-05T12:45:45.326Z,60712.61
2019-02-05T12:48:11.492Z,60703.57
2019-02-05T12:53:50.843Z,60677.75
2019-02-05T12:56:17.048Z,60673.15
2019-02-05T12:58:43.176Z,60678.02
2019-02-05T13:01:09.592Z,60676.95
2019-02-05T13:03:35.728Z,60666.77
2019-02-05T13:06:02.032Z,60666.30
2019-02-05T13:08:28.155Z,60656.20
2019-02-05T13:10:54.263Z,60650.89
2019-02-05T13:13:20.498Z,60649.29
2019-02-05T13:15:46.614Z,60645.03
2019-02-05T13:18:12.829Z,60630.07
2019-02-05T13:20:40.975Z,60623.33
2019-02-05T13:26:01.471Z,60630.16
2019-02-05T13:28:27.595Z,60615.88
2019-02-05T13:30:55.627Z,60617.40
2019-02-05T13:33:21.913Z,60605.98
2019-02-05T13:35:48.168Z,60609.42
2019-02-05T13:38:14.383Z,60603.58
2019-02-05T13:40:40.512Z,60595.09
2019-02-05T13:46:13.975Z,60572.31
2019-02-05T13:48:40.093Z,60572.23
2019-02-05T13:51:06.225Z,60550.49
2019-02-05T13:53:32.338Z,60562.14
2019-02-05T13:55:58.471Z,60548.79
2019-02-05T13:58:24.584Z,60539.39
2019-02-05T14:01:32.120Z,60545.14
2019-02-05T14:03:58.239Z,60537.70
2019-02-05T14:06:24.385Z,60517.61
2019-02-05T14:08:52.411Z,60518.61
2019-02-05T14:11:18.541Z,60511.50
2019-02-05T14:13:44.762Z,60506.92
2019-02-05T14:16:11.004Z,60489.49
2019-02-05T14:18:37.219Z,60494.19
2019-02-05T14:23:57.482Z,60466.57
2019-02-05T14:26:23.635Z,60453.30
2019-02-05T14:28:49.750Z,60450.12
2019-02-05T14:31:15.872Z,60425.75
2019-02-05T14:33:41.994Z,60427.95
2019-02-05T14:36:08.123Z,60424.56
2019-02-05T14:38:34.234Z,60413.03
2019-02-05T14:41:00.490Z,60424.68
2019-02-05T14:43:26.606Z,60418.13
2019-02-05T14:45:52.732Z,60416.73
2019-02-05T14:48:18.843Z,60392.96
2019-02-05T14:51:26.376Z,60408.77
2019-02-05T14:53:52.591Z,60386.70
2019-02-05T14:56:18.720Z,60394.57
2019-02-05T14:58:44.831Z,60396.59
2019-02-05T15:01:10.971Z,60388.25
2019-02-05T15:03:37.081Z,60387.03
2019-02-05T15:06:03.196Z,60383.85
2019-02-05T15:08:29.328Z,60353.29
2019-02-05T15:10:57.350Z,60379.61
2019-02-05T15:13:23.476Z,60369.00
2019-02-05T15:15:49.587Z,60357.09
2019-02-05T15:18:15.717Z,60360.53
2019-02-05T15:23:42.676Z,60356.82
2019-02-05T15:26:08.795Z,60352.04
2019-02-05T15:28:34.976Z,60358.01
2019-02-05T15:31:01.096Z,60364.78
2019-02-05T15:36:24.723Z,60373.25
2019-02-05T15:38:50.959Z,60381.20
2019-02-05T15:41:17.085Z,60370.63
2019-02-05T15:43:43.212Z,60393.74
2019-02-05T15:46:09.423Z,60391.03
2019-02-05T15:48:35.553Z,60403.48
2019-02-05T15:51:03.575Z,60395.26
2019-02-05T15:53:29.708Z,60394.93
2019-02-05T15:55:55.925Z,60391.75
2019-02-05T15:58:22.074Z,60381.62
2019-02-05T16:00:48.288Z,60391.81
2019-02-05T16:03:14.498Z,60377.25
2019-02-05T16:05:40.636Z,60381.20
2019-02-05T16:08:06.765Z,60376.43
2019-02-05T16:10:32.880Z,60360.80
2019-02-05T16:12:59.216Z,60356.41
2019-02-05T16:15:25.335Z,60343.67
2019-02-05T16:17:51.448Z,60347.29
2019-02-05T16:20:58.995Z,60326.03
2019-02-05T16:23:25.143Z,60326.64
2019-02-05T16:25:51.267Z,60305.02
2019-02-05T16:28:17.382Z,60296.53
2019-02-05T16:30:43.519Z,60303.32
2019-02-05T16:33:09.652Z,60303.86
2019-02-05T16:35:35.799Z,60308.09
2019-02-05T16:38:01.905Z,60300.77
2019-02-05T16:41:09.443Z,60302.91
2019-02-05T16:43:35.570Z,60313.38
2019-02-05T16:46:01.714Z,60313.74
2019-02-05T16:48:27.909Z,60300.77
2019-02-05T16:50:56.047Z,60304.21
2019-02-05T16:53:22.159Z,60301.21
2019-02-05T16:55:48.391Z,60302.28
2019-02-05T16:58:14.518Z,60300.68
2019-02-05T17:00:40.651Z,60299.61
2019-02-05T17:03:06.759Z,60279.00
2019-02-05T17:06:14.295Z,60286.48
2019-02-05T17:08:40.426Z,60286.48
2019-02-05T17:11:06.661Z,60286.91
2019-02-05T17:13:32.784Z,60266.89
2019-02-05T17:15:58.905Z,60263.09
2019-02-05T17:18:26.955Z,60254.10
2019-02-05T17:20:53.088Z,60244.93
2019-02-05T17:23:19.224Z,60228.45
2019-02-05T17:25:45.352Z,60220.53
2019-02-05T17:28:11.463Z,60211.34
2019-02-05T17:31:18.999Z,60209.95
2019-02-05T17:33:45.135Z,60202.16
2019-02-05T17:36:11.256Z,60206.48
2019-02-05T17:38:37.372Z,60193.26
2019-02-05T17:41:03.599Z,60169.56
2019-02-05T17:43:29.710Z,60171.57
2019-02-05T17:45:55.841Z,60142.55
2019-02-05T17:48:23.958Z,60159.44
2019-02-05T17:50:50.183Z,60133.21
2019-02-05T17:53:16.299Z,60141.99
2019-02-05T17:55:42.517Z,60124.12
2019-02-05T17:58:08.743Z,60109.27
2019-02-05T18:00:54.923Z,60096.21
2019-02-05T18:03:21.471Z,60109.75
2019-02-05T18:05:47.584Z,60104.27
2019-02-05T18:08:13.715Z,60101.30
2019-02-05T18:10:41.927Z,60097.07
2019-02-05T18:13:08.007Z,60087.85
2019-02-05T18:16:15.528Z,60089.30
2019-02-05T18:18:41.660Z,60067.53
2019-02-05T18:21:07.804Z,60077.33
2019-02-05T18:23:33.927Z,60068.14
2019-02-05T18:26:00.039Z,60052.59
2019-02-05T18:28:26.171Z,60057.78
2019-02-05T18:30:52.809Z,60048.08
2019-02-05T18:33:18.911Z,60029.95
2019-02-05T18:35:45.029Z,60009.01
2019-02-05T18:38:52.567Z,60004.19
2019-02-05T18:41:18.805Z,59990.38
2019-02-05T18:43:45.032Z,59979.52
2019-02-05T18:46:12.779Z,59968.41
2019-02-05T18:48:39.211Z,59956.23
2019-02-05T18:51:05.342Z,59964.43
2019-02-05T18:53:31.473Z,59958.82
2019-02-05T18:55:57.588Z,59958.82
2019-02-05T18:58:26.559Z,59949.62
2019-02-05T19:00:51.741Z,59953.11
2019-02-05T19:03:17.874Z,59960.32
2019-02-05T19:05:43.980Z,59982.55
2019-02-05T19:11:03.985Z,60004.70
2019-02-05T19:13:30.117Z,60001.13
2019-02-05T19:15:56.229Z,60001.84
2019-02-05T19:18:22.356Z,60010.52
2019-02-05T19:20:48.474Z,60000.60
2019-02-05T19:23:14.641Z,60012.60
2019-02-05T19:26:00.608Z,60008.86
2019-02-05T19:33:34.877Z,60019.46
2019-02-05T19:36:01.107Z,60004.74
2019-02-05T19:38:27.232Z,60009.21
2019-02-05T19:40:57.448Z,59994.36
2019-02-05T19:43:23.354Z,59992.77
2019-02-05T19:46:09.354Z,60009.46
2019-02-05T19:48:55.395Z,60004.87
2019-02-05T19:51:21.711Z,59995.49
2019-02-05T19:53:47.833Z,59981.60
2019-02-05T19:56:14.696Z,59964.08
2019-02-05T19:58:42.090Z,59941.10
2019-02-05T20:01:08.324Z,59967.25
2019-02-05T20:03:38.812Z,59961.38
2019-02-05T20:12:04.683Z,59949.95
2019-02-05T20:14:31.123Z,59933.08
2019-02-05T20:16:57.244Z,59933.96
2019-02-05T20:19:24.850Z,59937.30
2019-02-05T20:21:51.618Z,59930.45
2019-02-05T20:24:17.768Z,59916.05
2019-02-05T20:26:43.992Z,59923.09
2019-02-05T20:29:10.111Z,59942.98
2019-02-05T20:31:36.281Z,59952.49
2019-02-05T20:34:02.567Z,59929.30
2019-02-05T20:36:28.692Z,59904.45
2019-02-05T20:38:56.811Z,59889.93
2019-02-05T20:41:23.122Z,59870.27
2019-02-05T20:43:49.365Z,59838.05
2019-02-05T20:46:15.598Z,59862.91
2019-02-05T20:48:41.815Z,59873.43
2019-02-05T20:51:08.062Z,59846.84
2019-02-05T20:53:34.283Z,59840.34
2019-02-05T20:56:00.528Z,59821.84
2019-02-05T20:58:26.743Z,59836.70
2019-02-05T21:00:52.986Z,59835.99
2019-02-05T21:03:20.995Z,59830.67
2019-02-05T21:05:47.115Z,59840.39
2019-02-05T21:08:13.349Z,59850.81
2019-02-05T21:10:39.575Z,59869.23
2019-02-05T21:13:05.730Z,59873.47
2019-02-05T21:15:31.858Z,59873.85
2019-02-05T21:17:58.115Z,59880.41
2019-02-05T21:20:44.105Z,59899.79
2019-02-05T21:23:10.354Z,59908.21
2019-02-05T21:25:36.476Z,59914.46
2019-02-05T21:30:56.697Z,59928.45
2019-02-05T21:33:23.132Z,59945.75
2019-02-05T21:35:49.250Z,59953.99
2019-02-05T21:38:15.494Z,59962.95
2019-02-05T21:40:41.714Z,59987.82
2019-02-05T21:43:07.944Z,60006.82
2019-02-05T21:45:34.066Z,60004.19
2019-02-05T21:48:00.199Z,59996.31
2019-02-05T21:50:26.425Z,60010.94
2019-02-05T21:52:52.667Z,60017.29
2019-02-05T21:56:00.384Z,60033.72
2019-02-05T21:58:26.529Z,60043.21
2019-02-05T22:00:52.895Z,60031.47
2019-02-05T22:03:21.045Z,60041.64
2019-02-05T22:05:48.999Z,60035.31
2019-02-05T22:08:15.164Z,60034.78
2019-02-05T22:10:41.348Z,60036.88
2019-02-05T22:13:07.483Z,60037.95
2019-02-05T22:15:33.611Z,60031.19
2019-02-05T22:17:59.855Z,60056.94
2019-02-05T22:23:40.185Z,60086.00
2019-02-05T22:26:06.410Z,60095.25
2019-02-05T22:28:32.647Z,60097.71
2019-02-05T22:30:58.877Z,60101.82
2019-02-05T22:33:27.980Z,60098.75
2019-02-05T22:35:53.243Z,60121.91
2019-02-05T22:38:19.510Z,60112.49
2019-02-05T22:40:45.732Z,60128.05
2019-02-05T22:43:13.765Z,60127.11
2019-02-05T22:45:41.158Z,60151.20
2019-02-05T22:48:08.031Z,60129.93
2019-02-05T22:51:15.573Z,60113.68
2019-02-05T22:53:41.719Z,60125.00
2019-02-05T22:56:07.936Z,60126.25
2019-02-05T22:58:34.176Z,60113.93
2019-02-05T23:01:41.732Z,60089.35
2019-02-05T23:04:51.083Z,60104.58
2019-02-05T23:07:17.401Z,60118.21
2019-02-05T23:10:23.132Z,60108.63
2019-02-05T23:12:49.456Z,60115.04
2019-02-05T23:15:57.040Z,60099.11
2019-02-05T23:18:23.274Z,60091.88
2019-02-05T23:20:49.412Z,60065.15
2019-02-05T23:23:15.634Z,60053.37
2019-02-05T23:28:19.255Z,60081.21
2019-02-05T23:30:45.416Z,60104.47
2019-02-05T23:33:11.632Z,60114.66
2019-02-05T23:35:37.749Z,60107.21
2019-02-05T23:38:45.291Z,60118.21
2019-02-05T23:41:11.827Z,60120.32
2019-02-05T23:43:37.945Z,60108.28
2019-02-05T23:48:58.350Z,60110.38
2019-02-05T23:53:58.439Z,60128.78
2019-02-05T23:56:25.773Z,60129.82
2019-02-05T23:58:52.618Z,60129.09
